createdAt,value
2019-03-11T00:02:22.781Z,1.20
2019-03-11T00:04:51.864Z,1.40
2019-03-11T00:07:20.934Z,1.40
2019-03-11T00:09:50.015Z,1.20
2019-03-11T00:12:19.075Z,1.10
2019-03-11T00:14:48.083Z,1.40
2019-03-11T00:17:17.144Z,1.40
2019-03-11T00:19:46.223Z,1.40
2019-03-11T00:22:15.293Z,1.30
2019-03-11T00:24:44.445Z,1.30
2019-03-11T00:27:13.435Z,1.53
2019-03-11T00:29:42.511Z,1.50
2019-03-11T00:32:11.575Z,1.50
2019-03-11T00:34:40.673Z,1.87
2019-03-11T00:37:09.737Z,1.60
2019-03-11T00:39:38.832Z,1.87
2019-03-11T00:42:07.813Z,1.70
2019-03-11T00:44:36.889Z,1.63
2019-03-11T00:47:05.944Z,2.17
2019-03-11T00:49:35.022Z,2.30
2019-03-11T00:52:04.092Z,2.10
2019-03-11T00:54:33.191Z,2.40
2019-03-11T00:57:02.230Z,2.30
2019-03-11T00:59:31.315Z,3.13
2019-03-11T01:02:00.395Z,3.00
2019-03-11T01:04:29.485Z,3.20
2019-03-11T01:06:58.548Z,3.10
2019-03-11T01:09:27.620Z,3.10
2019-03-11T01:11:56.678Z,2.90
2019-03-11T01:14:25.689Z,2.90
2019-03-11T01:16:54.760Z,2.70
2019-03-11T01:19:23.843Z,3.47
2019-03-11T01:21:52.826Z,2.90
2019-03-11T01:24:21.905Z,3.17
2019-03-11T01:26:50.962Z,3.00
2019-03-11T01:29:20.046Z,3.60
2019-03-11T01:31:49.103Z,3.33
2019-03-11T01:34:18.192Z,3.33
2019-03-11T01:36:47.247Z,3.40
2019-03-11T01:39:16.339Z,3.30
2019-03-11T01:41:45.320Z,3.30
2019-03-11T01:44:14.402Z,3.70
2019-03-11T01:46:43.473Z,3.20
2019-03-11T01:49:12.499Z,3.43
2019-03-11T01:51:41.478Z,3.60
2019-03-11T01:54:10.570Z,3.40
2019-03-11T01:56:39.628Z,3.23
2019-03-11T01:59:08.719Z,3.03
2019-03-11T02:01:37.816Z,3.30
2019-03-11T02:04:06.914Z,3.30
2019-03-11T02:06:35.962Z,3.13
2019-03-11T02:09:05.503Z,2.80
2019-03-11T02:11:34.564Z,2.53
2019-03-11T02:14:03.756Z,3.23
2019-03-11T02:16:32.817Z,2.40
2019-03-11T02:19:02.001Z,2.90
2019-03-11T02:21:31.069Z,2.70
2019-03-11T02:24:00.165Z,2.43
2019-03-11T02:26:29.233Z,2.20
2019-03-11T02:28:58.310Z,2.50
2019-03-11T02:31:27.378Z,2.50
2019-03-11T02:33:56.471Z,2.40
2019-03-11T02:36:25.710Z,2.63
2019-03-11T02:38:54.794Z,2.50
2019-03-11T02:41:23.861Z,2.10
2019-03-11T02:43:52.945Z,2.37
2019-03-11T02:46:21.921Z,2.40
2019-03-11T02:48:50.937Z,2.60
2019-03-11T02:51:20.009Z,2.23
2019-03-11T02:53:49.097Z,2.13
2019-03-11T02:56:18.171Z,2.50
2019-03-11T02:58:47.228Z,2.63
2019-03-11T03:01:53.998Z,2.43
2019-03-11T03:04:27.203Z,2.80
2019-03-11T03:06:56.257Z,2.67
2019-03-11T03:09:25.367Z,2.77
2019-03-11T03:11:54.444Z,2.87
2019-03-11T03:14:23.511Z,3.83
2019-03-11T03:16:52.573Z,3.77
2019-03-11T03:19:21.677Z,3.40
2019-03-11T03:21:50.736Z,3.57
2019-03-11T03:24:19.832Z,3.90
2019-03-11T03:26:48.899Z,3.70
2019-03-11T03:29:17.993Z,4.13
2019-03-11T03:31:47.061Z,3.60
2019-03-11T03:34:16.146Z,3.80
2019-03-11T03:36:45.160Z,3.00
2019-03-11T03:39:14.249Z,3.60
2019-03-11T03:41:43.315Z,3.53
2019-03-11T03:44:12.416Z,3.23
2019-03-11T03:46:41.548Z,3.50
2019-03-11T03:49:10.620Z,3.83
2019-03-11T03:51:39.711Z,4.00
2019-03-11T03:54:08.776Z,3.10
2019-03-11T03:56:37.876Z,3.27
2019-03-11T03:59:06.955Z,2.90
2019-03-11T04:01:36.124Z,2.60
2019-03-11T04:04:05.223Z,2.47
2019-03-11T04:06:34.306Z,2.47
2019-03-11T04:09:03.566Z,2.93
2019-03-11T04:11:32.656Z,3.27
2019-03-11T04:14:01.748Z,3.70
2019-03-11T04:16:30.839Z,3.50
2019-03-11T04:18:59.911Z,3.63
2019-03-11T04:21:29.016Z,3.73
2019-03-11T04:23:58.091Z,3.70
2019-03-11T04:26:31.228Z,3.10
2019-03-11T04:29:00.316Z,3.73
2019-03-11T04:31:29.436Z,3.60
2019-03-11T04:33:58.517Z,3.97
2019-03-11T04:36:27.606Z,4.20
2019-03-11T04:38:56.673Z,4.37
2019-03-11T04:41:25.771Z,4.00
2019-03-11T04:43:54.847Z,3.50
2019-03-11T04:46:23.934Z,3.70
2019-03-11T04:48:53.000Z,3.90
2019-03-11T04:51:22.090Z,3.50
2019-03-11T04:53:51.163Z,3.40
2019-03-11T04:56:20.258Z,3.33
2019-03-11T04:58:49.267Z,3.50
2019-03-11T05:01:18.363Z,3.77
2019-03-11T05:03:47.455Z,4.00
2019-03-11T05:06:16.488Z,3.80
2019-03-11T05:08:45.556Z,2.73
2019-03-11T05:11:14.642Z,2.67
2019-03-11T05:13:43.700Z,2.77
2019-03-11T05:16:12.803Z,2.13
2019-03-11T05:18:41.863Z,2.20
2019-03-11T05:21:10.947Z,2.30
2019-03-11T05:23:40.018Z,2.60
2019-03-11T05:26:09.110Z,2.40
2019-03-11T05:28:38.179Z,2.47
2019-03-11T05:31:07.263Z,2.00
2019-03-11T05:33:36.335Z,2.60
2019-03-11T05:36:05.412Z,2.33
2019-03-11T05:38:34.490Z,2.00
2019-03-11T05:41:03.579Z,2.20
2019-03-11T05:43:32.576Z,2.47
2019-03-11T05:46:01.655Z,2.33
2019-03-11T05:48:30.642Z,2.13
2019-03-11T05:50:59.730Z,2.40
2019-03-11T05:53:28.726Z,2.70
2019-03-11T05:56:00.801Z,2.40
2019-03-11T05:58:29.900Z,2.30
2019-03-11T06:00:58.984Z,2.50
2019-03-11T06:03:28.067Z,2.80
2019-03-11T06:05:58.827Z,2.40
2019-03-11T06:08:28.212Z,2.60
2019-03-11T06:10:57.299Z,2.50
2019-03-11T06:13:35.600Z,2.50
2019-03-11T06:15:58.362Z,2.70
2019-03-11T06:18:45.228Z,2.23
2019-03-11T06:21:33.267Z,2.40
2019-03-11T06:24:02.331Z,2.23
2019-03-11T06:26:31.411Z,2.27
2019-03-11T06:29:00.467Z,2.03
2019-03-11T06:31:29.544Z,1.90
2019-03-11T06:33:58.536Z,2.00
2019-03-11T06:36:27.619Z,1.90
2019-03-11T06:39:05.213Z,2.00
2019-03-11T06:41:27.496Z,2.20
2019-03-11T06:43:56.546Z,2.33
2019-03-11T06:46:25.617Z,2.33
2019-03-11T06:48:54.679Z,3.50
2019-03-11T06:51:23.927Z,3.10
2019-03-11T06:53:52.966Z,2.80
2019-03-11T06:56:22.048Z,2.60
2019-03-11T06:58:51.131Z,3.00
2019-03-11T07:01:20.227Z,3.70
2019-03-11T07:03:49.245Z,3.33
2019-03-11T07:06:18.295Z,3.70
2019-03-11T07:08:47.310Z,3.43
2019-03-11T07:11:16.385Z,3.30
2019-03-11T07:13:45.448Z,3.30
2019-03-11T07:16:14.525Z,3.70
2019-03-11T07:18:43.586Z,3.57
2019-03-11T07:21:12.670Z,3.20
2019-03-11T07:23:41.727Z,3.70
2019-03-11T07:26:10.806Z,3.67
2019-03-11T07:28:39.868Z,3.60
2019-03-11T07:31:08.956Z,4.00
2019-03-11T07:33:37.953Z,4.10
2019-03-11T07:36:07.239Z,3.93
2019-03-11T07:38:36.301Z,3.70
2019-03-11T07:41:05.382Z,4.50
2019-03-11T07:43:34.556Z,4.10
2019-03-11T07:46:03.620Z,4.20
2019-03-11T07:48:32.633Z,4.60
2019-03-11T07:51:01.712Z,3.73
2019-03-11T07:53:30.809Z,3.63
2019-03-11T07:55:59.819Z,3.67
2019-03-11T07:58:28.750Z,3.70
2019-03-11T08:00:57.834Z,3.90
2019-03-11T08:03:26.919Z,3.70
2019-03-11T08:05:55.995Z,3.73
2019-03-11T08:08:25.073Z,4.00
2019-03-11T08:10:54.149Z,3.90
2019-03-11T08:13:23.227Z,3.77
2019-03-11T08:15:52.289Z,3.00
2019-03-11T08:18:21.296Z,3.57
2019-03-11T08:20:50.359Z,3.33
2019-03-11T08:23:19.459Z,3.13
2019-03-11T08:25:48.516Z,3.40
2019-03-11T08:28:17.598Z,3.10
2019-03-11T08:30:46.979Z,3.30
2019-03-11T08:33:16.054Z,3.03
2019-03-11T08:35:45.126Z,3.57
2019-03-11T08:38:14.147Z,2.80
2019-03-11T08:40:43.214Z,3.40
2019-03-11T08:43:12.279Z,2.97
2019-03-11T08:45:41.273Z,2.60
2019-03-11T08:48:10.376Z,2.73
2019-03-11T08:50:39.365Z,2.83
2019-03-11T08:53:08.450Z,2.80
2019-03-11T08:55:37.515Z,3.10
2019-03-11T08:58:06.590Z,2.67
2019-03-11T09:00:35.663Z,2.47
2019-03-11T09:03:04.760Z,3.03
2019-03-11T09:05:33.815Z,3.20
2019-03-11T09:08:02.894Z,2.10
2019-03-11T09:10:31.961Z,2.43
2019-03-11T09:13:00.992Z,2.33
2019-03-11T09:15:30.066Z,2.60
2019-03-11T09:17:59.172Z,2.40
2019-03-11T09:20:28.225Z,2.63
2019-03-11T09:22:57.237Z,2.87
2019-03-11T09:25:26.339Z,2.47
2019-03-11T09:27:55.406Z,2.83
2019-03-11T09:30:24.774Z,2.80
2019-03-11T09:32:53.870Z,2.27
2019-03-11T09:35:22.953Z,2.23
2019-03-11T09:37:52.036Z,2.50
2019-03-11T09:40:21.108Z,2.50
2019-03-11T09:42:50.290Z,2.67
2019-03-11T09:45:19.559Z,2.00
2019-03-11T09:47:48.660Z,2.17
2019-03-11T09:50:18.172Z,2.53
2019-03-11T09:52:47.264Z,2.20
2019-03-11T09:55:16.337Z,2.17
2019-03-11T09:57:45.431Z,1.83
2019-03-11T10:00:16.925Z,2.40
2019-03-11T10:02:52.350Z,2.20
2019-03-11T10:05:16.813Z,2.33
2019-03-11T10:07:45.928Z,1.97
2019-03-11T10:10:15.873Z,2.20
2019-03-11T10:12:44.889Z,1.90
2019-03-11T10:15:14.837Z,1.77
2019-03-11T10:17:43.948Z,1.73
2019-03-11T10:20:13.675Z,1.97
2019-03-11T10:22:42.979Z,1.90
2019-03-11T10:25:12.364Z,1.97
2019-03-11T10:27:41.509Z,2.13
2019-03-11T10:30:12.413Z,2.10
2019-03-11T10:32:41.509Z,2.10
2019-03-11T10:35:30.267Z,1.70
2019-03-11T10:37:42.847Z,1.70
2019-03-11T10:40:14.331Z,1.97
2019-03-11T10:42:43.427Z,1.53
2019-03-11T10:45:12.865Z,1.70
2019-03-11T10:47:41.974Z,1.60
2019-03-11T10:50:11.512Z,1.87
2019-03-11T10:52:40.594Z,1.93
2019-03-11T10:55:11.150Z,2.00
2019-03-11T10:57:40.210Z,1.90
2019-03-11T11:00:12.915Z,1.90
2019-03-11T11:02:42.047Z,1.70
2019-03-11T11:05:11.234Z,2.00
2019-03-11T11:07:40.299Z,1.97
2019-03-11T11:10:09.705Z,1.93
2019-03-11T11:12:38.783Z,2.03
2019-03-11T11:15:16.128Z,2.13
2019-03-11T11:17:45.491Z,1.93
2019-03-11T11:20:15.165Z,2.60
2019-03-11T11:22:44.242Z,2.00
2019-03-11T11:25:15.470Z,2.10
2019-03-11T11:27:44.536Z,2.00
2019-03-11T11:30:16.453Z,2.27
2019-03-11T11:32:45.517Z,1.70
2019-03-11T11:35:16.063Z,2.57
2019-03-11T11:37:45.534Z,1.97
2019-03-11T11:40:16.710Z,2.00
2019-03-11T11:42:45.768Z,2.13
2019-03-11T11:45:16.735Z,2.27
2019-03-11T11:47:45.802Z,2.43
2019-03-11T11:50:16.685Z,2.27
2019-03-11T11:52:45.854Z,2.00
2019-03-11T11:55:15.156Z,2.47
2019-03-11T11:57:44.231Z,2.20
2019-03-11T12:00:19.637Z,1.90
2019-03-11T12:02:48.726Z,2.30
2019-03-11T12:05:18.260Z,2.20
2019-03-11T12:07:47.339Z,2.13
2019-03-11T12:10:17.522Z,1.70
2019-03-11T12:12:46.608Z,1.80
2019-03-11T12:15:15.690Z,1.67
2019-03-11T12:17:44.754Z,1.90
2019-03-11T12:20:16.543Z,1.73
2019-03-11T12:22:45.673Z,1.50
2019-03-11T12:25:16.192Z,1.57
2019-03-11T12:27:53.734Z,1.73
2019-03-11T12:30:20.938Z,1.70
2019-03-11T12:32:50.025Z,1.70
2019-03-11T12:35:19.646Z,1.90
2019-03-11T12:37:48.726Z,1.77
2019-03-11T12:40:17.952Z,1.40
2019-03-11T12:42:47.119Z,1.50
2019-03-11T12:45:16.260Z,1.67
2019-03-11T12:47:45.325Z,1.67
2019-03-11T12:50:16.163Z,1.60
2019-03-11T12:52:45.225Z,1.70
2019-03-11T12:55:14.315Z,1.87
2019-03-11T12:57:43.392Z,1.80
2019-03-11T13:00:14.816Z,1.80
2019-03-11T13:02:43.897Z,1.60
2019-03-11T13:05:13.404Z,1.60
2019-03-11T13:07:42.477Z,1.90
2019-03-11T13:10:13.963Z,2.00
2019-03-11T13:12:43.024Z,2.00
2019-03-11T13:15:12.620Z,1.90
2019-03-11T13:17:41.717Z,1.70
2019-03-11T13:20:14.219Z,2.10
2019-03-11T13:22:43.286Z,2.23
2019-03-11T13:25:12.391Z,2.20
2019-03-11T13:27:41.387Z,1.87
2019-03-11T13:30:11.752Z,2.00
2019-03-11T13:32:40.816Z,2.27
2019-03-11T13:35:09.893Z,2.13
2019-03-11T13:37:38.987Z,1.90
2019-03-11T13:40:08.332Z,1.80
2019-03-11T13:42:37.419Z,1.77
2019-03-11T13:45:06.659Z,1.77
2019-03-11T13:47:35.751Z,1.80
2019-03-11T13:50:06.413Z,1.83
2019-03-11T13:52:35.518Z,1.70
2019-03-11T13:55:10.058Z,2.13
2019-03-11T13:57:36.049Z,1.77
2019-03-11T14:00:05.580Z,1.87
2019-03-11T14:02:34.695Z,1.60
2019-03-11T14:05:03.783Z,1.70
2019-03-11T14:07:32.875Z,1.63
2019-03-11T14:10:01.954Z,1.80
2019-03-11T14:12:31.061Z,1.90
2019-03-11T14:15:00.353Z,1.50
2019-03-11T14:17:29.420Z,1.50
2019-03-11T14:19:58.494Z,1.87
2019-03-11T14:22:27.603Z,1.80
2019-03-11T14:24:56.677Z,1.53
2019-03-11T14:27:25.770Z,1.67
2019-03-11T14:29:54.843Z,1.80
2019-03-11T14:32:23.929Z,1.40
2019-03-11T14:34:52.908Z,1.30
2019-03-11T14:37:21.935Z,1.60
2019-03-11T14:39:51.010Z,1.70
2019-03-11T14:42:20.109Z,1.67
2019-03-11T14:44:49.195Z,1.30
2019-03-11T14:47:18.294Z,1.57
2019-03-11T14:49:47.354Z,1.40
2019-03-11T14:52:16.455Z,1.40
2019-03-11T14:54:45.545Z,1.83
2019-03-11T14:57:14.637Z,1.87
2019-03-11T14:59:44.355Z,1.50
2019-03-11T15:02:13.588Z,1.80
2019-03-11T15:04:42.698Z,1.70
2019-03-11T15:07:11.802Z,1.93
2019-03-11T15:09:51.048Z,1.20
2019-03-11T15:12:11.619Z,1.60
2019-03-11T15:14:40.693Z,1.40
2019-03-11T15:17:09.797Z,1.40
2019-03-11T15:19:38.866Z,1.60
2019-03-11T15:22:07.963Z,1.40
2019-03-11T15:24:37.027Z,1.10
2019-03-11T15:27:06.105Z,1.03
2019-03-11T15:29:35.181Z,0.90
2019-03-11T15:32:04.279Z,1.10
2019-03-11T15:34:33.354Z,1.10
2019-03-11T15:37:02.438Z,1.10
2019-03-11T15:39:31.492Z,1.10
2019-03-11T15:42:01.433Z,1.10
2019-03-11T15:44:30.502Z,1.00
2019-03-11T15:46:59.674Z,0.70
2019-03-11T15:49:28.712Z,0.90
2019-03-11T15:51:57.722Z,1.00
2019-03-11T15:54:26.712Z,0.90
2019-03-11T15:56:55.863Z,1.10
2019-03-11T15:59:24.966Z,1.07
2019-03-11T16:01:54.028Z,1.10
2019-03-11T16:04:23.132Z,1.17
2019-03-11T16:06:52.220Z,1.13
2019-03-11T16:09:21.198Z,1.20
2019-03-11T16:11:50.268Z,1.20
2019-03-11T16:14:19.343Z,1.10
2019-03-11T16:16:48.431Z,1.30
2019-03-11T16:19:17.569Z,1.10
2019-03-11T16:21:46.563Z,1.20
2019-03-11T16:24:15.658Z,1.00
2019-03-11T16:26:44.716Z,1.47
2019-03-11T16:29:13.799Z,1.10
2019-03-11T16:31:42.859Z,1.20
2019-03-11T16:34:11.943Z,1.50
2019-03-11T16:36:41.023Z,1.07
2019-03-11T16:39:10.118Z,1.43
2019-03-11T16:41:39.241Z,1.13
2019-03-11T16:44:08.333Z,1.20
2019-03-11T16:46:37.413Z,1.60
2019-03-11T16:49:06.495Z,2.20
2019-03-11T16:51:35.554Z,2.23
2019-03-11T16:54:04.651Z,2.37
2019-03-11T16:56:36.971Z,2.47
2019-03-11T16:59:06.145Z,1.83
2019-03-11T17:01:35.129Z,2.40
2019-03-11T17:04:04.256Z,2.20
2019-03-11T17:06:33.317Z,2.20
2019-03-11T17:09:02.327Z,1.80
2019-03-11T17:11:31.315Z,2.30
2019-03-11T17:14:00.402Z,2.43
2019-03-11T17:16:29.543Z,2.40
2019-03-11T17:18:58.623Z,2.57
2019-03-11T17:21:27.686Z,2.93
2019-03-11T17:23:56.704Z,2.50
2019-03-11T17:26:25.767Z,3.07
2019-03-11T17:28:54.895Z,3.30
2019-03-11T17:31:23.959Z,2.83
2019-03-11T17:33:53.049Z,2.53
2019-03-11T17:36:22.117Z,2.80
2019-03-11T17:38:51.198Z,2.47
2019-03-11T17:41:20.249Z,2.37
2019-03-11T17:43:49.353Z,3.03
2019-03-11T17:46:18.327Z,2.67
2019-03-11T17:48:47.392Z,2.57
2019-03-11T17:51:16.455Z,3.20
2019-03-11T17:53:45.456Z,2.67
2019-03-11T17:56:14.596Z,3.17
2019-03-11T17:58:43.700Z,2.70
2019-03-11T18:01:12.868Z,3.00
2019-03-11T18:03:42.019Z,3.07
2019-03-11T18:06:12.168Z,3.60
2019-03-11T18:08:41.234Z,3.10
2019-03-11T18:11:10.302Z,3.03
2019-03-11T18:13:39.375Z,3.13
2019-03-11T18:16:08.516Z,3.03
2019-03-11T18:18:37.604Z,2.40
2019-03-11T18:21:07.005Z,2.33
2019-03-11T18:23:35.995Z,1.80
2019-03-11T18:26:05.047Z,1.80
2019-03-11T18:28:34.129Z,2.30
2019-03-11T18:31:03.197Z,1.67
2019-03-11T18:33:32.273Z,2.93
2019-03-11T18:36:01.334Z,2.47
2019-03-11T18:38:30.420Z,2.37
2019-03-11T18:40:59.564Z,1.93
2019-03-11T18:43:28.744Z,2.43
2019-03-11T18:46:00.229Z,2.37
2019-03-11T18:48:28.678Z,2.17
2019-03-11T18:50:57.776Z,2.30
2019-03-11T18:53:26.889Z,1.83
2019-03-11T18:55:55.985Z,2.33
2019-03-11T18:58:25.043Z,1.90
2019-03-11T19:00:54.144Z,1.83
2019-03-11T19:03:23.162Z,1.40
2019-03-11T19:05:52.211Z,1.40
2019-03-11T19:08:21.365Z,2.43
2019-03-11T19:10:50.480Z,2.50
2019-03-11T19:13:19.517Z,2.20
2019-03-11T19:15:48.545Z,2.13
2019-03-11T19:18:17.682Z,3.20
2019-03-11T19:20:46.730Z,2.60
2019-03-11T19:23:15.790Z,3.13
2019-03-11T19:25:44.890Z,2.93
2019-03-11T19:28:14.241Z,2.77
2019-03-11T19:30:43.313Z,2.17
2019-03-11T19:33:12.458Z,2.73
2019-03-11T19:35:41.639Z,2.00
2019-03-11T19:38:10.769Z,1.97
2019-03-11T19:40:39.916Z,3.47
2019-03-11T19:43:09.045Z,2.33
2019-03-11T19:45:38.126Z,1.93
2019-03-11T19:48:07.120Z,2.27
2019-03-11T19:50:36.194Z,2.67
2019-03-11T19:53:05.289Z,2.80
2019-03-11T19:55:34.350Z,3.07
2019-03-11T19:58:03.400Z,3.20
2019-03-11T20:00:32.543Z,3.10
2019-03-11T20:03:01.682Z,2.50
2019-03-11T20:05:30.757Z,3.60
2019-03-11T20:07:59.909Z,2.70
2019-03-11T20:10:28.981Z,4.17
2019-03-11T20:12:58.052Z,3.70
2019-03-11T20:15:27.165Z,4.20
2019-03-11T20:17:56.213Z,4.23
2019-03-11T20:20:25.261Z,3.67
2019-03-11T20:22:54.371Z,3.43
2019-03-11T20:25:25.359Z,2.83
2019-03-11T20:27:54.399Z,2.10
2019-03-11T20:30:24.145Z,1.83
2019-03-11T20:32:53.259Z,2.37
2019-03-11T20:35:22.383Z,2.23
2019-03-11T20:37:51.501Z,2.40
2019-03-11T20:40:20.688Z,2.73
2019-03-11T20:42:49.738Z,3.77
2019-03-11T20:45:18.922Z,4.07
2019-03-11T20:47:47.987Z,3.50
2019-03-11T20:50:17.228Z,6.10
2019-03-11T20:52:46.304Z,3.90
2019-03-11T20:55:15.487Z,5.27
2019-03-11T20:57:44.624Z,6.07
2019-03-11T21:00:18.821Z,5.13
2019-03-11T21:02:48.017Z,4.57
2019-03-11T21:05:18.304Z,6.20
2019-03-11T21:07:47.369Z,5.50
2019-03-11T21:10:16.720Z,5.30
2019-03-11T21:12:45.860Z,4.93
2019-03-11T21:15:15.076Z,6.00
2019-03-11T21:17:44.138Z,6.17
2019-03-11T21:20:14.250Z,6.37
2019-03-11T21:22:43.485Z,7.10
2019-03-11T21:25:14.250Z,6.70
2019-03-11T21:27:43.310Z,8.10
2019-03-11T21:30:14.852Z,6.27
2019-03-11T21:32:43.886Z,6.17
2019-03-11T21:35:13.317Z,6.77
2019-03-11T21:37:42.413Z,7.03
2019-03-11T21:40:13.219Z,5.80
2019-03-11T21:42:42.285Z,6.33
2019-03-11T21:45:12.276Z,6.63
2019-03-11T21:47:41.323Z,7.40
2019-03-11T21:50:14.416Z,7.33
2019-03-11T21:52:43.487Z,6.10
2019-03-11T21:55:12.615Z,6.20
2019-03-11T21:57:41.726Z,4.90
2019-03-11T22:00:13.560Z,6.33
2019-03-11T22:02:42.569Z,6.90
2019-03-11T22:05:11.700Z,6.03
2019-03-11T22:07:40.724Z,6.00
2019-03-11T22:10:10.591Z,5.90
2019-03-11T22:12:39.646Z,6.23
2019-03-11T22:15:09.816Z,6.50
2019-03-11T22:17:38.877Z,5.47
2019-03-11T22:20:09.229Z,5.37
2019-03-11T22:22:38.287Z,5.47
2019-03-11T22:25:07.920Z,6.27
2019-03-11T22:27:36.992Z,6.60
2019-03-11T22:30:07.134Z,5.23
2019-03-11T22:32:36.216Z,7.67
2019-03-11T22:35:12.665Z,8.17
2019-03-11T22:37:36.424Z,8.77
2019-03-11T22:40:06.359Z,8.40
2019-03-11T22:42:35.348Z,8.27
2019-03-11T22:45:04.884Z,8.30
2019-03-11T22:47:33.962Z,6.83
2019-03-11T22:50:03.024Z,9.07
2019-03-11T22:52:32.116Z,8.87
2019-03-11T22:55:01.176Z,7.97
2019-03-11T22:57:30.251Z,7.10
2019-03-11T22:59:59.305Z,7.60
2019-03-11T23:02:28.485Z,5.90
2019-03-11T23:04:57.570Z,6.83
2019-03-11T23:07:26.645Z,7.17
2019-03-11T23:09:55.718Z,7.00
2019-03-11T23:12:24.803Z,6.00
2019-03-11T23:14:53.868Z,7.17
2019-03-11T23:17:22.869Z,6.60
2019-03-11T23:19:51.998Z,6.03
2019-03-11T23:22:21.094Z,6.30
2019-03-11T23:24:50.150Z,4.70
2019-03-11T23:27:19.226Z,6.23
2019-03-11T23:29:48.284Z,7.10
2019-03-11T23:32:17.367Z,6.93
2019-03-11T23:34:46.434Z,8.77
2019-03-11T23:37:15.522Z,9.17
2019-03-11T23:39:44.433Z,6.33
2019-03-11T23:42:13.517Z,5.43
2019-03-11T23:44:42.578Z,6.40
2019-03-11T23:47:11.676Z,7.00
2019-03-11T23:49:40.736Z,8.27
2019-03-11T23:52:09.819Z,7.83
2019-03-11T23:54:38.805Z,8.03
2019-03-11T23:57:07.908Z,9.90
2019-03-11T23:59:36.968Z,8.20
